Salzburg Flughafen, Austria

3:06 AM CET on December 29, 2014 (GMT +0100)
Salzburg Maxglan | Change Station
CLOSE
Current Station
Personal Weather Station
Location: Salzburg, SALZBURG
Elevation: 1398 ft
Nearby Weather Stations

Elev 1398 ft 47.80 °N, 13.01 °E | Updated 2 minutes ago

Partly Cloudy
Partly Cloudy
16.3 °F
Feels Like 16 °F
N
0.7
Wind Variable Wind from West
Gusts 3.1 mph

Today
High -- | Low -- °F
--% Chance of Precip.
Yesterday
High -- | Low -- °F
Precip. -- in
7:56 AM 4:23 PM
First Quarter, 53% visible
Pressure 30.39 in
Visibility 4.3 miles
Clouds Few 5000 ft
Windchill 16 °F
Dew Point 9 °F
Humidity 71%
Rainfall 0.00 in
Snow Depth Not available.
UV 0 out of 12
Pollen Not available.
Air Quality Not available.
Flu Activity Not available.
METAR LOWS 290150Z AUTO VRB01KT 7000 FEW050 M09/M10 Q1029

More Conditions Fewer Conditions

Pressure 30.39 in
Visibility 4.3 miles
Clouds Few 5000 ft
Windchill 16 °F
Dew Point 9 °F
Humidity 71%
Rainfall 0.00 in
Snow Depth Not available.
UV 0 out of 12
Pollen Not available.
Air Quality Not available.
Flu Activity Not available.
METAR LOWS 290150Z AUTO VRB01KT 7000 FEW050 M09/M10 Q1029

More Conditions Fewer Conditions

10-Day Weather Forecast

Almanac

Astronomy

Dec. 29, 2014 Rise Set
Actual Time
Civil Twilight
Nautical Twilight
Astronomical Twilight
Moon
Length of Visible Light
Length of Day
Tomorrow will be .
, % of the Moon is Illuminated

Today's Extremes

Country Highs Country Lows

Community

WunderPhotos

Upload Photos

1,781,492 photos uploaded!

WunderBlogs® & News

Nearby

Air Quality

  Air Quality AQ Index Pollutant
Not available.

Snow Depth

Station Depth Elevation

Earthquake Activity

City Distance Mag. Time & Date
Minimum magnitude displayed is 2.5.

Coastal Water Temperatures

Place Temperature

Nearby Weather Stations